Terminal Aerodrome Forecast
Issued by NWS

Current Version | Previous Version | Graphics & Text | Print | Product List | Glossary Off
Versions: 1 2 3 4 5 6 7 8 9 10 11 12 13 14 15 16 17

000
FTUS41 KILN 071700 RRA
TAFLCK
TAF
KLCK 071751Z 0718/0818 22014G23KT P6SM BKN025 BKN040
     FM072000 21012G22KT P6SM VCTS BKN035CB
      TEMPO 0720/0724 5SM -TSRA BR OVC025CB
     FM080000 24011KT 5SM -SHRA BR VCTS OVC020CB
     FM080900 33010KT P6SM VCSH OVC015
     FM081200 02006KT P6SM BKN030=

USA.gov is the U.S. government's official web portal to all federal, state and local government web resources and services.